Time;durP1;ratioP1;P1;durP2;ratioP2;P2;SDS_P1;SDS_P2;PMS_P1;PMS_P2;Temp;Humidity;BMP_temperature;BMP_pressure;BME280_temperature;BME280_humidity;BME280_pressure;Samples;Min_cycle;Max_cycle;Signal;HPM_P1;HPM_P2
2021/08/07 00:01:28;;;;;;;8.90;3.15;;;;;;;19.19;69.64;100328.75;5030655;28;20045;-55
2021/08/07 00:03:55;;;;;;;8.20;3.17;;;;;;;19.20;69.70;100329.59;5032324;28;20053;-55
2021/08/07 00:06:26;;;;;;;8.25;3.45;;;;;;;19.21;69.64;100331.19;5032360;28;20041;-56
2021/08/07 00:08:54;;;;;;;10.27;3.47;;;;;;;19.21;69.69;100328.44;5032191;28;20037;-56
2021/08/07 00:11:21;;;;;;;4.85;2.63;;;;;;;19.27;69.67;100335.38;5032120;28;20049;-53
2021/08/07 00:13:49;;;;;;;8.38;3.30;;;;;;;19.27;70.02;100333.41;5032391;28;20037;-57
2021/08/07 00:16:16;;;;;;;5.03;2.58;;;;;;;19.27;70.07;100327.88;5031810;28;20037;-56
2021/08/07 00:18:44;;;;;;;5.90;2.80;;;;;;;19.29;70.12;100338.56;5032267;28;20113;-58
2021/08/07 00:21:12;;;;;;;8.50;2.83;;;;;;;19.28;70.58;100342.50;5032448;28;20048;-59
2021/08/07 00:23:39;;;;;;;8.80;3.00;;;;;;;19.24;70.70;100341.56;5031759;28;20037;-59
2021/08/07 00:26:07;;;;;;;8.48;3.00;;;;;;;19.22;70.82;100325.34;5032342;28;20050;-59
2021/08/07 00:28:34;;;;;;;6.85;2.88;;;;;;;19.20;70.97;100335.09;5032023;28;20037;-59
2021/08/07 00:31:03;;;;;;;4.97;2.80;;;;;;;19.18;71.16;100331.88;5031605;28;20056;-59
2021/08/07 00:33:37;;;;;;;7.68;3.15;;;;;;;19.13;71.61;100330.94;5030716;28;20103;-60
2021/08/07 00:36:06;;;;;;;9.02;3.10;;;;;;;19.09;71.80;100318.94;5030685;28;20038;-58
2021/08/07 00:38:36;;;;;;;7.22;3.03;;;;;;;19.06;72.20;100324.34;5030609;28;20098;-60
2021/08/07 00:41:04;;;;;;;6.72;2.80;;;;;;;19.08;71.78;100311.81;5031053;28;20092;-59
2021/08/07 00:43:34;;;;;;;6.18;2.70;;;;;;;18.99;72.21;100313.81;5035639;28;20049;-58
2021/08/07 00:46:07;;;;;;;7.38;2.70;;;;;;;18.98;72.59;100330.72;5055139;28;20104;-58
2021/08/07 00:48:37;;;;;;;6.60;2.78;;;;;;;18.98;72.46;100322.44;5035106;28;20037;-58
2021/08/07 00:51:17;;;;;;;8.02;3.15;;;;;;;18.99;72.48;100319.34;5040327;28;20152;-58
2021/08/07 00:53:48;;;;;;;7.63;2.60;;;;;;;18.99;72.34;100324.88;5034636;28;20128;-57
2021/08/07 00:56:21;;;;;;;7.38;2.85;;;;;;;18.98;72.47;100317.75;5034848;28;20595;-59
2021/08/07 00:58:56;;;;;;;6.35;2.67;;;;;;;18.96;72.38;100314.50;5048392;28;20041;-60
2021/08/07 01:01:24;;;;;;;5.95;2.60;;;;;;;18.96;72.56;100322.78;5035193;28;20080;-59
2021/08/07 01:03:55;;;;;;;8.63;2.90;;;;;;;18.99;72.18;100324.06;5033032;28;20099;-59
2021/08/07 01:06:43;;;;;;;5.75;2.75;;;;;;;19.01;72.09;100316.25;5038986;28;20553;-58
2021/08/07 01:09:37;;;;;;;10.52;2.90;;;;;;;19.00;72.12;100317.38;5049013;28;20049;-58
2021/08/07 01:12:31;;;;;;;7.50;3.00;;;;;;;18.99;72.24;100313.81;5034137;28;20504;-59
2021/08/07 01:15:01;;;;;;;5.65;2.53;;;;;;;18.97;72.49;100307.81;5035171;28;20457;-59
2021/08/07 01:17:33;;;;;;;5.85;2.72;;;;;;;18.96;72.67;100308.97;5033463;28;20069;-56
2021/08/07 01:20:14;;;;;;;6.80;2.90;;;;;;;18.95;72.51;100310.09;5029776;28;20045;-60
2021/08/07 01:23:10;;;;;;;8.80;3.10;;;;;;;18.97;72.18;100309.78;5038416;28;20049;-59
2021/08/07 01:26:01;;;;;;;4.93;2.45;;;;;;;18.94;72.19;100314.03;5036508;28;20561;-57
2021/08/07 01:28:40;;;;;;;8.35;3.17;;;;;;;18.88;72.37;100312.59;5026950;28;20049;-60
2021/08/07 01:31:10;;;;;;;6.45;2.70;;;;;;;18.84;72.49;100306.16;5035909;28;20076;-57
2021/08/07 01:33:39;;;;;;;5.63;2.60;;;;;;;18.83;72.37;100304.53;5042846;28;20045;-57
2021/08/07 01:36:15;;;;;;;6.57;2.65;;;;;;;18.85;72.43;100313.28;5033681;28;20128;-59
2021/08/07 01:38:49;;;;;;;9.48;3.20;;;;;;;18.82;72.60;100316.72;5037612;28;20183;-58
2021/08/07 01:41:20;;;;;;;7.60;2.70;;;;;;;18.82;72.40;100309.25;5036764;28;20041;-57
2021/08/07 01:43:54;;;;;;;6.00;2.58;;;;;;;18.84;72.41;100318.00;5033177;28;20496;-58
2021/08/07 01:46:31;;;;;;;7.10;2.70;;;;;;;18.84;72.41;100322.72;5034601;28;20049;-52
2021/08/07 01:49:08;;;;;;;5.65;2.45;;;;;;;18.82;72.11;100309.25;5033765;28;20091;-57
2021/08/07 01:51:56;;;;;;;6.25;2.58;;;;;;;18.77;72.22;100311.41;5047175;28;20102;-57
2021/08/07 01:54:37;;;;;;;5.53;2.47;;;;;;;18.77;72.43;100311.41;5025837;28;20069;-59
2021/08/07 01:57:13;;;;;;;7.63;2.95;;;;;;;18.74;72.38;100308.13;5037283;28;20120;-60
2021/08/07 01:59:45;;;;;;;5.70;2.30;;;;;;;18.75;72.42;100319.97;5033640;28;20508;-56
2021/08/07 02:02:14;;;;;;;8.77;2.78;;;;;;;18.70;72.56;100312.72;5035006;28;20127;-57
2021/08/07 02:04:51;;;;;;;6.13;2.45;;;;;;;18.69;72.45;100308.34;5057881;28;20045;-58
2021/08/07 02:07:25;;;;;;;6.78;2.90;;;;;;;18.67;72.36;100310.63;5033210;28;20045;-59
2021/08/07 02:09:58;;;;;;;4.93;2.60;;;;;;;18.67;72.28;100318.91;5033112;28;20116;-60
2021/08/07 02:12:27;;;;;;;7.03;3.17;;;;;;;18.66;72.48;100322.00;5031987;28;20107;-60
2021/08/07 02:15:04;;;;;;;5.10;2.13;;;;;;;18.65;72.39;100304.63;5045219;28;20669;-59
2021/08/07 02:17:33;;;;;;;5.53;2.65;;;;;;;18.63;72.45;100312.44;5033998;28;20045;-60
2021/08/07 02:20:01;;;;;;;6.50;2.60;;;;;;;18.61;72.42;100309.19;5033013;28;20099;-60
2021/08/07 02:22:32;;;;;;;7.03;2.20;;;;;;;18.59;72.43;100307.91;5032770;28;20084;-60
2021/08/07 02:25:01;;;;;;;2.65;2.08;;;;;;;18.55;72.35;100296.75;5042840;28;20538;-60
2021/08/07 02:27:50;;;;;;;7.53;2.55;;;;;;;18.52;72.69;100300.19;5033297;28;20145;-58
2021/08/07 02:30:21;;;;;;;6.65;2.45;;;;;;;18.52;72.51;100300.19;5032742;28;20496;-59
2021/08/07 02:32:51;;;;;;;5.07;2.50;;;;;;;18.53;72.36;100299.84;5040554;28;20404;-59
2021/08/07 02:35:21;;;;;;;6.95;2.30;;;;;;;18.56;72.32;100298.34;5030506;28;20041;-58
2021/08/07 02:37:51;;;;;;;3.65;1.88;;;;;;;18.55;72.07;100299.50;5031087;28;20065;-58
2021/08/07 02:40:21;;;;;;;6.95;2.30;;;;;;;18.53;72.19;100299.03;5032390;28;20041;-59
2021/08/07 02:42:54;;;;;;;5.18;2.35;;;;;;;18.51;72.33;100290.28;5023852;28;20033;-60
2021/08/07 02:45:24;;;;;;;7.28;2.30;;;;;;;18.50;72.30;100288.69;5046718;28;20495;-60
2021/08/07 02:47:52;;;;;;;6.63;2.17;;;;;;;18.49;72.30;100285.09;5022419;28;20046;-59
2021/08/07 02:50:22;;;;;;;2.97;1.67;;;;;;;18.50;72.38;100291.44;5034234;28;20116;-58
2021/08/07 02:52:53;;;;;;;5.90;2.30;;;;;;;18.49;72.23;100289.81;5032161;28;20488;-60
2021/08/07 02:55:22;;;;;;;5.13;2.30;;;;;;;18.48;72.26;100293.72;5029888;28;20053;-60
2021/08/07 02:57:59;;;;;;;5.15;2.17;;;;;;;18.54;72.18;100295.13;5032224;28;20449;-59
2021/08/07 03:00:28;;;;;;;6.93;2.15;;;;;;;18.53;72.08;100293.50;5032203;28;20403;-60
2021/08/07 03:02:56;;;;;;;3.28;1.92;;;;;;;18.50;72.11;100299.72;5032501;28;20049;-60
2021/08/07 03:05:25;;;;;;;4.38;2.00;;;;;;;18.55;72.06;100302.28;5045798;28;20144;-58
2021/08/07 03:07:58;;;;;;;4.97;2.03;;;;;;;18.49;72.24;100289.81;5032315;28;20068;-59
2021/08/07 03:10:28;;;;;;;4.38;2.10;;;;;;;18.51;72.06;100290.28;5032260;28;20049;-58
2021/08/07 03:12:57;;;;;;;4.03;1.80;;;;;;;18.48;72.47;100288.19;5032981;28;20492;-59
2021/08/07 03:15:28;;;;;;;4.75;2.25;;;;;;;18.45;72.53;100286.13;5031750;28;20072;-61
2021/08/07 03:17:56;;;;;;;6.78;2.00;;;;;;;18.42;72.70;100281.25;5031991;28;20049;-58
2021/08/07 03:20:30;;;;;;;6.45;2.10;;;;;;;18.39;72.89;100284.69;5032173;28;20073;-54
2021/08/07 03:23:04;;;;;;;6.28;2.10;;;;;;;18.38;72.82;100288.59;5045958;28;20072;-57
2021/08/07 03:25:34;;;;;;;4.90;2.05;;;;;;;18.37;73.12;100286.97;5031754;28;20061;-59
2021/08/07 03:28:07;;;;;;;3.60;1.80;;;;;;;18.39;72.97;100287.44;5031945;28;20049;-59
2021/08/07 03:30:35;;;;;;;3.38;1.63;;;;;;;18.42;72.96;100279.28;5041762;28;20045;-57
2021/08/07 03:33:03;;;;;;;4.97;2.08;;;;;;;18.40;72.86;100284.34;5049378;28;20059;-59
2021/08/07 03:35:31;;;;;;;6.20;2.08;;;;;;;18.39;73.08;100273.66;5031996;28;20049;-59
2021/08/07 03:37:59;;;;;;;6.28;2.40;;;;;;;18.38;73.12;100277.56;5031081;28;20436;-60
2021/08/07 03:40:27;;;;;;;2.97;1.60;;;;;;;18.44;72.60;100277.00;5031612;28;20396;-58
2021/08/07 03:42:56;;;;;;;3.13;1.63;;;;;;;18.46;72.51;100273.91;5031909;28;20041;-59
2021/08/07 03:45:26;;;;;;;3.83;2.15;;;;;;;18.43;72.76;100266.31;5046123;28;20037;-60
2021/08/07 03:47:58;;;;;;;3.42;1.77;;;;;;;18.44;72.78;100270.69;5031996;28;20114;-59
2021/08/07 03:50:34;;;;;;;5.20;2.00;;;;;;;18.41;72.99;100272.16;5037224;28;20037;-56
2021/08/07 03:53:05;;;;;;;4.07;2.10;;;;;;;18.41;73.00;100274.13;5039660;28;20116;-54
2021/08/07 03:55:33;;;;;;;5.07;1.83;;;;;;;18.43;72.81;100267.13;5035669;28;20040;-58
2021/08/07 03:58:03;;;;;;;4.55;1.88;;;;;;;18.41;72.78;100265.84;5040053;28;20072;-58
2021/08/07 04:00:54;;;;;;;5.32;1.98;;;;;;;18.42;72.62;100267.44;5035778;28;20041;-59
2021/08/07 04:03:26;;;;;;;5.30;1.95;;;;;;;18.39;72.79;100268.13;5051287;28;20369;-58
2021/08/07 04:05:57;;;;;;;3.65;2.00;;;;;;;18.35;72.56;100264.41;5061269;28;20048;-57
2021/08/07 04:08:26;;;;;;;7.60;2.58;;;;;;;18.29;72.73;100264.59;5030699;28;20055;-60
2021/08/07 04:10:54;;;;;;;4.38;2.15;;;;;;;18.18;73.25;100263.38;5030877;28;20052;-59
2021/08/07 04:13:23;;;;;;;4.07;2.17;;;;;;;18.11;73.46;100265.84;5051204;28;20049;-61
2021/08/07 04:15:52;;;;;;;4.85;2.20;;;;;;;18.08;73.43;100259.03;5051015;28;20091;-59
2021/08/07 04:18:21;;;;;;;3.72;2.08;;;;;;;18.04;73.51;100262.81;5040414;28;20393;-60
2021/08/07 04:20:52;;;;;;;4.85;1.95;;;;;;;18.00;73.47;100261.84;5030882;28;20057;-59
2021/08/07 04:23:22;;;;;;;4.28;2.15;;;;;;;18.01;73.75;100258.75;5030678;28;20055;-59
2021/08/07 04:25:51;;;;;;;5.32;2.00;;;;;;;18.06;73.26;100258.59;5031041;28;20068;-59
2021/08/07 04:28:19;;;;;;;5.20;2.10;;;;;;;18.08;73.18;100259.03;5035147;28;20120;-59
2021/08/07 04:30:51;;;;;;;4.10;1.88;;;;;;;18.11;73.12;100263.09;5034767;28;20056;-57
2021/08/07 04:33:19;;;;;;;4.82;1.92;;;;;;;18.11;72.72;100257.56;5034754;28;20042;-54
2021/08/07 04:35:48;;;;;;;4.63;1.95;;;;;;;18.10;72.82;100264.22;5048566;28;20076;-52
2021/08/07 04:38:23;;;;;;;5.53;2.22;;;;;;;18.06;72.93;100260.53;5034296;28;20056;-55
2021/08/07 04:40:53;;;;;;;5.20;2.05;;;;;;;18.03;72.93;100259.22;5034564;28;20084;-53
2021/08/07 04:43:29;;;;;;;4.65;2.33;;;;;;;18.01;73.08;100263.47;5034611;28;20033;-55
2021/08/07 04:45:57;;;;;;;7.80;2.08;;;;;;;18.02;73.09;100260.38;5044187;28;20452;-57
2021/08/07 04:48:25;;;;;;;4.93;1.83;;;;;;;18.04;72.89;100262.81;5052232;28;20449;-52
2021/08/07 04:51:06;;;;;;;8.65;2.50;;;;;;;18.04;73.15;100260.06;5034645;28;20079;-53
2021/08/07 04:53:38;;;;;;;6.57;2.38;;;;;;;18.05;72.89;100264.44;5048206;28;20038;-55
2021/08/07 04:56:12;;;;;;;7.20;2.97;;;;;;;18.05;72.92;100256.16;5034503;28;20128;-53
2021/08/07 04:58:41;;;;;;;8.27;2.50;;;;;;;18.02;73.06;100249.38;5034303;28;20436;-58
2021/08/07 05:01:11;;;;;;;7.65;2.45;;;;;;;18.03;72.89;100252.91;5034272;28;20049;-53
2021/08/07 05:03:39;;;;;;;4.13;2.28;;;;;;;18.00;73.29;100256.34;5034382;28;20041;-51
2021/08/07 05:06:11;;;;;;;3.88;2.10;;;;;;;18.04;73.00;100268.34;5034102;28;20241;-52
2021/08/07 05:08:39;;;;;;;6.53;2.53;;;;;;;18.03;73.15;100264.75;5047944;28;20505;-53
2021/08/07 05:11:07;;;;;;;6.50;2.67;;;;;;;18.01;73.30;100257.94;5034349;28;20049;-48
2021/08/07 05:13:36;;;;;;;7.18;2.17;;;;;;;17.99;73.25;100254.72;5034209;28;20077;-53
2021/08/07 05:16:06;;;;;;;7.68;2.30;;;;;;;17.95;73.36;100254.59;5023455;28;20053;-51
2021/08/07 05:18:33;;;;;;;6.90;2.60;;;;;;;17.94;73.27;100257.66;5058596;28;20128;-49
2021/08/07 05:21:04;;;;;;;5.75;2.35;;;;;;;17.88;73.42;100259.81;5038437;28;20098;-51
2021/08/07 05:23:36;;;;;;;3.00;1.92;;;;;;;17.84;73.82;100247.81;5054032;28;20095;-51
2021/08/07 05:26:07;;;;;;;5.93;2.28;;;;;;;17.83;73.74;100247.00;5035409;28;20091;-52
2021/08/07 05:28:35;;;;;;;5.63;2.20;;;;;;;17.82;73.88;100250.09;4352456;28;10000713;-51
2021/08/07 05:31:04;;;;;;;4.65;2.38;;;;;;;17.84;74.11;100243.09;5048305;28;20034;-54
2021/08/07 05:33:34;;;;;;;8.55;2.63;;;;;;;17.86;73.74;100240.03;5031799;28;20560;-54
2021/08/07 05:36:04;;;;;;;6.88;2.45;;;;;;;17.85;74.07;100241.19;5014684;28;20407;-52
2021/08/07 05:38:32;;;;;;;4.72;2.20;;;;;;;17.81;74.19;100238.25;5030352;28;20104;-53
2021/08/07 05:40:59;;;;;;;6.13;2.50;;;;;;;17.80;74.50;100246.84;5031153;28;20057;-55
2021/08/07 05:43:29;;;;;;;6.80;2.40;;;;;;;17.83;74.47;100244.25;5045372;28;20060;-55
2021/08/07 05:45:57;;;;;;;4.60;2.50;;;;;;;17.86;74.41;100240.84;5031349;28;20045;-53
2021/08/07 05:48:24;;;;;;;6.63;2.08;;;;;;;17.90;74.29;100234.69;5032386;28;20045;-53
2021/08/07 05:50:53;;;;;;;5.97;2.78;;;;;;;17.92;74.12;100241.47;5030840;28;20140;-53
2021/08/07 05:53:20;;;;;;;6.13;2.63;;;;;;;17.93;73.79;100234.00;5030779;28;20072;-56
2021/08/07 05:55:49;;;;;;;7.38;2.80;;;;;;;17.93;73.80;100232.06;5032602;28;20051;-52
2021/08/07 05:58:17;;;;;;;6.63;2.70;;;;;;;17.90;73.78;100235.47;5024976;28;20080;-52
2021/08/07 06:00:47;;;;;;;5.15;2.50;;;;;;;17.92;73.95;100237.88;5050612;28;20037;-55
2021/08/07 06:03:15;;;;;;;5.82;2.70;;;;;;;17.95;73.86;100237.25;5039749;28;20461;-57
2021/08/07 06:05:49;;;;;;;5.55;2.80;;;;;;;17.98;73.84;100228.31;5036009;28;20037;-54
2021/08/07 06:08:17;;;;;;;6.45;2.50;;;;;;;18.02;73.99;100232.03;5039446;28;20049;-54
2021/08/07 06:10:44;;;;;;;6.38;2.30;;;;;;;18.05;73.36;100218.38;5046109;28;20467;-53
2021/08/07 06:13:14;;;;;;;6.97;2.72;;;;;;;18.08;73.34;100219.63;5050809;28;20056;-56
2021/08/07 06:15:43;;;;;;;5.45;2.83;;;;;;;18.11;73.10;100218.97;5047286;28;20748;-56
2021/08/07 06:18:11;;;;;;;6.47;2.80;;;;;;;18.15;72.84;100219.94;5031931;28;20049;-54
2021/08/07 06:20:42;;;;;;;4.15;2.60;;;;;;;18.15;72.65;100221.88;5044068;28;20049;-59
2021/08/07 06:23:10;;;;;;;8.48;2.78;;;;;;;18.14;72.48;100212.00;5031855;28;20033;-57
2021/08/07 06:25:38;;;;;;;4.85;2.05;;;;;;;18.17;71.98;100214.09;5044083;28;20458;-56
2021/08/07 06:28:06;;;;;;;6.07;2.72;;;;;;;18.16;72.02;100205.00;5036784;28;20053;-58
2021/08/07 06:30:35;;;;;;;8.48;2.80;;;;;;;18.15;71.61;100208.09;5050201;28;20041;-55
2021/08/07 06:33:07;;;;;;;7.32;2.92;;;;;;;18.15;71.68;100203.38;5037306;28;20064;-58
2021/08/07 06:35:34;;;;;;;6.45;2.80;;;;;;;18.19;71.59;100209.84;5041643;28;20046;-61
2021/08/07 06:38:02;;;;;;;4.43;2.00;;;;;;;18.23;71.46;100210.81;5037256;28;20032;-60
2021/08/07 06:40:32;;;;;;;4.43;2.38;;;;;;;18.24;71.15;100206.91;5034575;28;20057;-60
2021/08/07 06:43:02;;;;;;;6.95;2.47;;;;;;;18.28;71.31;100201.53;5031647;28;20045;-57
2021/08/07 06:45:59;;;;;;;7.70;2.58;;;;;;;18.36;71.22;100211.69;5036105;28;20400;-58
2021/08/07 06:48:27;;;;;;;8.82;2.92;;;;;;;18.45;70.61;100211.63;5032889;28;20128;-55
2021/08/07 06:50:56;;;;;;;6.75;2.60;;;;;;;18.50;70.65;100214.19;5029689;28;20077;-57
2021/08/07 06:53:26;;;;;;;5.97;2.70;;;;;;;18.48;70.62;100220.03;5030060;28;20104;-57
2021/08/07 06:55:53;;;;;;;7.63;2.72;;;;;;;18.47;70.82;100209.31;5030983;28;20045;-57
2021/08/07 06:58:21;;;;;;;6.72;2.80;;;;;;;18.48;70.64;100210.94;5031800;28;20041;-57
2021/08/07 07:00:49;;;;;;;6.13;2.95;;;;;;;18.47;70.59;100209.31;5044425;28;20033;-58
2021/08/07 07:03:17;;;;;;;8.15;3.08;;;;;;;18.47;70.55;100204.63;5060465;28;20060;-59
2021/08/07 07:05:47;;;;;;;4.20;2.60;;;;;;;18.53;70.65;100208.00;5051476;28;20072;-57
2021/08/07 07:08:15;;;;;;;6.65;2.97;;;;;;;18.52;70.83;100206.38;5045011;28;20068;-58
2021/08/07 07:10:43;;;;;;;6.38;2.45;;;;;;;18.54;70.72;100206.84;5041013;28;20163;-58
2021/08/07 07:13:11;;;;;;;7.07;2.95;;;;;;;18.61;70.21;100214.56;5041655;28;20052;-57
2021/08/07 07:15:38;;;;;;;6.47;2.60;;;;;;;18.58;70.05;100207.78;5035016;28;20558;-58
2021/08/07 07:18:06;;;;;;;7.10;3.03;;;;;;;18.57;70.36;100208.94;5038572;28;20045;-60
2021/08/07 07:20:34;;;;;;;9.35;3.20;;;;;;;18.57;70.72;100208.09;5036789;28;20041;-60
2021/08/07 07:23:05;;;;;;;13.48;4.18;;;;;;;18.62;70.25;100200.44;5038788;28;20526;-58
2021/08/07 07:25:34;;;;;;;12.25;3.97;;;;;;;18.62;69.78;100199.66;5043580;28;20060;-58
2021/08/07 07:28:03;;;;;;;8.77;3.10;;;;;;;18.63;70.19;100198.50;5054792;28;20042;-60
2021/08/07 07:30:31;;;;;;;9.15;3.65;;;;;;;18.63;69.42;100196.53;5043909;28;20055;-60
2021/08/07 07:32:59;;;;;;;14.50;4.28;;;;;;;18.65;68.93;100194.25;5038396;28;20037;-60
2021/08/07 07:35:27;;;;;;;6.30;2.67;;;;;;;18.63;68.41;100196.53;5042178;28;20045;-60
2021/08/07 07:37:54;;;;;;;15.30;4.70;;;;;;;18.59;68.13;100189.25;5041322;28;20120;-58
2021/08/07 07:40:23;;;;;;;16.90;5.00;;;;;;;18.60;68.54;100197.22;5038119;28;20136;-60
2021/08/07 07:42:50;;;;;;;9.82;3.70;;;;;;;18.63;68.98;100188.25;5031451;28;20038;-59
2021/08/07 07:45:18;;;;;;;17.77;4.53;;;;;;;18.65;68.29;100191.50;5044729;28;20042;-59
2021/08/07 07:47:46;;;;;;;8.23;3.30;;;;;;;18.64;67.67;100187.13;5030964;28;20041;-60
2021/08/07 07:50:15;;;;;;;8.25;3.15;;;;;;;18.66;67.76;100189.53;5031099;28;20045;-59
2021/08/07 07:52:48;;;;;;;9.77;3.22;;;;;;;18.67;67.74;100189.19;5031113;28;20124;-59
2021/08/07 07:55:49;;;;;;;20.08;4.45;;;;;;;18.73;67.45;100192.56;4990557;28;20050;-60
2021/08/07 07:58:20;;;;;;;9.65;3.90;;;;;;;18.72;67.39;100191.75;4984591;28;20053;-58
2021/08/07 08:00:48;;;;;;;6.88;3.38;;;;;;;18.72;67.45;100189.00;4990033;28;20054;-60
2021/08/07 08:03:17;;;;;;;7.85;3.63;;;;;;;18.78;67.65;100197.88;4974419;28;20477;-56
2021/08/07 08:05:45;;;;;;;11.63;3.75;;;;;;;18.76;67.54;100193.81;4973696;28;20094;-59
2021/08/07 08:08:13;;;;;;;7.90;3.08;;;;;;;18.74;67.21;100189.47;4984513;28;20096;-57
2021/08/07 08:10:41;;;;;;;8.02;3.30;;;;;;;18.73;67.02;100185.06;4978868;28;20054;-59
2021/08/07 08:13:14;;;;;;;8.85;3.58;;;;;;;18.72;67.11;100182.66;4999113;28;20411;-60
2021/08/07 08:15:42;;;;;;;10.88;4.10;;;;;;;18.78;67.35;100175.00;5050867;28;20037;-59
2021/08/07 08:18:11;;;;;;;9.82;3.28;;;;;;;18.77;66.72;100181.69;5041334;28;20041;-59
2021/08/07 08:20:41;;;;;;;9.18;2.95;;;;;;;18.79;66.56;100171.13;5046352;28;20526;-60
2021/08/07 08:23:09;;;;;;;8.07;3.05;;;;;;;18.85;67.07;100180.78;5047311;28;20046;-60
2021/08/07 08:25:37;;;;;;;5.65;2.88;;;;;;;18.89;66.52;100181.72;5044481;28;20043;-59
2021/08/07 08:28:06;;;;;;;9.45;3.38;;;;;;;18.89;66.73;100177.00;5044062;28;20053;-59
2021/08/07 08:30:34;;;;;;;10.05;3.65;;;;;;;18.93;66.67;100177.94;5043264;28;20072;-57
2021/08/07 08:33:02;;;;;;;10.13;3.45;;;;;;;18.98;66.87;100174.19;5036140;28;20045;-60
2021/08/07 08:35:30;;;;;;;7.68;4.00;;;;;;;19.02;66.77;100177.03;5050376;28;20514;-59
2021/08/07 08:37:58;;;;;;;7.47;3.20;;;;;;;19.03;66.92;100173.97;5050966;28;20049;-58
2021/08/07 08:40:26;;;;;;;8.60;3.30;;;;;;;19.00;66.54;100171.88;5043465;28;20492;-62
2021/08/07 08:42:55;;;;;;;8.30;2.65;;;;;;;19.02;66.76;100175.09;5043484;28;20051;-60
2021/08/07 08:45:24;;;;;;;7.07;2.80;;;;;;;19.04;66.46;100169.22;5018806;28;20380;-59
2021/08/07 08:47:52;;;;;;;7.60;3.10;;;;;;;18.99;66.55;100174.97;5034154;28;20090;-59
2021/08/07 08:50:23;;;;;;;7.20;2.65;;;;;;;18.96;66.64;100164.63;5050806;28;20045;-60
2021/08/07 08:52:52;;;;;;;8.75;2.85;;;;;;;19.00;66.95;100154.50;5034580;28;20037;-59
2021/08/07 08:55:20;;;;;;;8.23;2.55;;;;;;;19.03;66.89;100142.78;5046253;28;20453;-59
2021/08/07 08:57:48;;;;;;;8.43;2.67;;;;;;;19.05;66.80;100140.47;5048123;28;20103;-59
2021/08/07 09:00:17;;;;;;;8.55;2.90;;;;;;;19.01;66.50;100134.84;5034083;28;20041;-59
2021/08/07 09:02:45;;;;;;;9.32;2.58;;;;;;;19.05;67.19;100137.69;5030376;28;20116;-58
2021/08/07 09:05:15;;;;;;;7.65;2.90;;;;;;;19.24;67.50;100138.00;5043865;28;20435;-59
2021/08/07 09:07:44;;;;;;;10.30;3.28;;;;;;;19.38;66.98;100143.16;5048379;28;20061;-58
2021/08/07 09:10:14;;;;;;;6.88;2.67;;;;;;;19.35;66.25;100141.09;5049775;28;20434;-59
2021/08/07 09:12:52;;;;;;;6.55;2.53;;;;;;;19.36;66.47;100131.66;5028093;28;20447;-59
2021/08/07 09:15:34;;;;;;;6.63;2.50;;;;;;;19.36;66.22;100128.88;5039533;28;20072;-55
2021/08/07 09:18:14;;;;;;;7.33;2.70;;;;;;;19.38;65.85;100137.63;5042751;28;20110;-59
2021/08/07 09:20:51;;;;;;;8.55;2.55;;;;;;;19.38;65.70;100132.13;5037438;28;20045;-58
2021/08/07 09:23:35;;;;;;;7.22;2.70;;;;;;;19.46;66.22;100128.44;5042648;28;20091;-58
2021/08/07 09:26:16;;;;;;;7.90;3.25;;;;;;;19.56;65.33;100129.94;5039420;28;20037;-60
2021/08/07 09:28:54;;;;;;;6.15;2.47;;;;;;;19.67;65.45;100127.50;5049823;28;20076;-56
2021/08/07 09:31:25;;;;;;;8.70;2.65;;;;;;;19.64;64.97;100122.69;5046488;28;20053;-55
2021/08/07 09:34:17;;;;;;;10.45;2.35;;;;;;;19.68;65.08;100112.59;5041263;28;20041;-55
2021/08/07 09:36:56;;;;;;;9.00;2.60;;;;;;;19.70;64.21;100121.31;5044138;28;20119;-55
2021/08/07 09:39:41;;;;;;;5.88;2.38;;;;;;;19.83;65.91;100109.09;5043463;28;20053;-57
2021/08/07 09:42:16;;;;;;;6.60;2.70;;;;;;;19.98;65.22;100111.13;5033128;28;20125;-56
2021/08/07 09:44:44;;;;;;;11.07;2.95;;;;;;;20.04;63.37;100110.91;5034893;28;20049;-56
2021/08/07 09:47:15;;;;;;;11.68;2.70;;;;;;;19.98;61.46;100115.88;5039646;28;20045;-59
2021/08/07 09:49:46;;;;;;;8.60;2.30;;;;;;;20.13;64.75;100108.78;5040785;28;20045;-58
2021/08/07 09:52:17;;;;;;;8.48;2.45;;;;;;;20.04;60.62;100102.63;5033458;28;20128;-58
2021/08/07 09:54:47;;;;;;;8.43;2.58;;;;;;;19.96;61.21;100107.94;5026029;28;20049;-58
2021/08/07 09:57:29;;;;;;;9.10;3.03;;;;;;;20.11;61.53;100108.38;5031764;28;20041;-58
2021/08/07 10:00:01;;;;;;;8.38;3.03;;;;;;;20.15;61.29;100103.72;5033236;28;20077;-55
2021/08/07 10:02:32;;;;;;;7.57;2.20;;;;;;;20.17;63.19;100110.50;5039513;28;20128;-55
2021/08/07 10:05:08;;;;;;;4.97;1.95;;;;;;;20.26;62.76;100104.84;5053013;28;20037;-56
2021/08/07 10:07:38;;;;;;;9.63;2.55;;;;;;;20.14;60.08;100115.94;5063841;28;20057;-58
2021/08/07 10:10:21;;;;;;;9.63;2.38;;;;;;;20.18;63.12;100125.97;5033082;28;20047;-58
2021/08/07 10:12:55;;;;;;;6.32;2.35;;;;;;;20.29;62.82;100114.41;5041313;28;20548;-58
2021/08/07 10:16:01;;;;;;;6.82;2.00;;;;;;;20.35;61.96;100113.00;4995803;28;20181;-59
2021/08/07 10:18:32;;;;;;;5.53;1.88;;;;;;;20.30;60.55;100111.31;4992555;28;20106;-57
2021/08/07 10:21:03;;;;;;;7.28;2.67;;;;;;;20.41;63.01;100104.09;4992134;28;20473;-57
2021/08/07 10:23:32;;;;;;;7.72;2.17;;;;;;;20.42;60.52;100102.16;5002186;28;20532;-57
2021/08/07 10:26:02;;;;;;;8.93;2.40;;;;;;;20.45;59.87;100097.88;4994567;28;20045;-56
2021/08/07 10:28:33;;;;;;;2.05;1.10;;;;;;;20.48;62.40;100099.94;4992368;28;20062;-56
2021/08/07 10:31:03;;;;;;;9.13;2.53;;;;;;;20.49;57.99;100096.00;4989537;28;20054;-56
2021/08/07 10:33:35;;;;;;;9.05;2.60;;;;;;;20.40;58.50;100083.13;5001412;28;20050;-57
2021/08/07 10:36:03;;;;;;;7.13;2.42;;;;;;;20.42;59.00;100091.88;4992836;28;20053;-58
2021/08/07 10:38:31;;;;;;;8.30;2.50;;;;;;;20.48;61.09;100094.41;4983764;28;20046;-57
2021/08/07 10:40:59;;;;;;;6.20;2.22;;;;;;;20.53;59.20;100096.91;4994522;28;20625;-58
2021/08/07 10:43:32;;;;;;;6.90;2.55;;;;;;;20.59;59.24;100081.69;4991931;28;20121;-59
2021/08/07 10:46:02;;;;;;;8.68;2.63;;;;;;;20.72;61.17;100083.22;4985434;28;20042;-54
2021/08/07 10:48:39;;;;;;;8.25;2.30;;;;;;;20.73;58.41;100075.72;4991760;28;20050;-60
2021/08/07 10:51:23;;;;;;;9.27;2.45;;;;;;;20.74;60.73;100075.38;5029349;28;20104;-55
2021/08/07 10:53:52;;;;;;;9.13;2.55;;;;;;;20.77;59.55;100066.34;5033161;28;20129;-57
2021/08/07 10:56:34;;;;;;;6.35;2.33;;;;;;;20.71;60.70;100062.25;5033127;28;20044;-58
2021/08/07 10:59:11;;;;;;;10.20;2.55;;;;;;;20.70;57.52;100074.47;5031868;28;20479;-59
2021/08/07 11:01:40;;;;;;;5.07;2.00;;;;;;;20.74;60.00;100063.50;5033083;28;20068;-59
2021/08/07 11:04:08;;;;;;;8.23;2.40;;;;;;;20.84;57.52;100058.22;5032977;28;20053;-60
2021/08/07 11:06:42;;;;;;;6.43;2.10;;;;;;;20.97;58.88;100055.38;5033222;28;20111;-59
2021/08/07 11:09:25;;;;;;;9.65;2.70;;;;;;;20.93;56.91;100051.72;5032291;28;20034;-59
2021/08/07 11:12:10;;;;;;;4.80;1.88;;;;;;;20.97;58.92;100050.66;5033096;28;20050;-59
2021/08/07 11:14:42;;;;;;;10.18;2.17;;;;;;;21.04;57.91;100052.78;5040849;28;20388;-57
2021/08/07 11:17:13;;;;;;;11.77;3.05;;;;;;;21.05;56.70;100040.56;5037843;28;20049;-59
2021/08/07 11:20:17;;;;;;;6.32;2.20;;;;;;;21.02;55.53;100036.53;5033135;28;20475;-58
2021/08/07 11:22:45;;;;;;;7.45;2.33;;;;;;;21.01;57.93;100034.91;5031064;28;20045;-60
2021/08/07 11:25:17;;;;;;;4.93;1.90;;;;;;;21.09;57.68;100035.09;5032293;28;20057;-56
2021/08/07 11:27:49;;;;;;;5.70;2.10;;;;;;;21.10;54.09;100029.19;5032607;28;20044;-60
2021/08/07 11:30:34;;;;;;;7.57;2.28;;;;;;;21.09;57.68;100026.78;5032733;28;20052;-59
2021/08/07 11:33:15;;;;;;;5.53;2.25;;;;;;;21.05;54.77;100023.94;5038618;28;20045;-58
2021/08/07 11:35:44;;;;;;;5.47;2.30;;;;;;;21.05;55.23;100023.94;5038415;28;20041;-59
2021/08/07 11:38:18;;;;;;;13.25;2.58;;;;;;;21.06;54.61;100020.00;5031965;28;20050;-56
2021/08/07 11:40:47;;;;;;;8.65;2.42;;;;;;;21.06;54.12;100020.00;5038164;28;20053;-57
2021/08/07 11:43:17;;;;;;;8.00;2.58;;;;;;;21.11;54.16;100018.91;5032105;28;20488;-60
2021/08/07 11:45:49;;;;;;;6.35;1.80;;;;;;;21.12;53.78;100017.75;5032018;28;20459;-61